createdAt,value
2019-03-19T00:02:24.287Z,57.68
2019-03-19T00:06:28.513Z,57.68
2019-03-19T00:10:32.681Z,57.76
2019-03-19T00:14:36.898Z,57.77
2019-03-19T00:18:41.148Z,57.87
2019-03-19T00:22:45.429Z,57.85
2019-03-19T00:26:50.047Z,57.90
2019-03-19T00:30:54.599Z,58.02
2019-03-19T00:34:59.733Z,58.39
2019-03-19T00:39:05.571Z,58.58
2019-03-19T00:43:09.787Z,58.67
2019-03-19T00:47:14.023Z,58.77
2019-03-19T00:51:18.612Z,58.88
2019-03-19T00:55:22.828Z,58.96
2019-03-19T00:59:27.238Z,59.03
2019-03-19T01:03:31.494Z,59.35
2019-03-19T01:07:35.706Z,59.30
2019-03-19T01:11:39.946Z,59.35
2019-03-19T01:15:44.244Z,59.44
2019-03-19T01:19:48.467Z,59.60
2019-03-19T01:23:52.982Z,60.05
2019-03-19T01:27:57.162Z,60.10
2019-03-19T01:32:01.384Z,60.26
2019-03-19T01:36:05.661Z,60.49
2019-03-19T01:40:09.871Z,61.19
2019-03-19T01:44:14.091Z,61.87
2019-03-19T01:48:18.294Z,61.55
2019-03-19T01:52:22.506Z,62.34
2019-03-19T01:56:26.714Z,61.52
2019-03-19T02:00:30.889Z,62.31
2019-03-19T02:04:35.400Z,61.56
2019-03-19T02:08:39.616Z,61.65
2019-03-19T02:12:44.265Z,61.57
2019-03-19T02:16:48.523Z,61.58
2019-03-19T02:20:52.700Z,61.60
2019-03-19T02:24:56.936Z,61.53
2019-03-19T02:29:01.175Z,61.78
2019-03-19T02:33:05.393Z,61.54
2019-03-19T02:37:09.725Z,61.57
2019-03-19T02:41:13.917Z,61.48
2019-03-19T02:45:18.133Z,61.44
2019-03-19T02:49:22.299Z,61.30
2019-03-19T02:53:29.492Z,61.27
2019-03-19T02:57:32.809Z,61.28
2019-03-19T03:01:37.173Z,61.27
2019-03-19T03:05:41.382Z,61.37
2019-03-19T03:09:45.743Z,61.44
2019-03-19T03:13:50.065Z,61.47
2019-03-19T03:17:54.279Z,61.63
2019-03-19T03:21:58.646Z,61.89
2019-03-19T03:26:02.857Z,61.86
2019-03-19T03:30:08.298Z,61.91
2019-03-19T03:34:14.793Z,61.91
2019-03-19T03:38:19.511Z,62.03
2019-03-19T03:42:23.775Z,62.19
2019-03-19T03:46:28.201Z,62.17
2019-03-19T03:50:32.597Z,62.73
2019-03-19T03:54:36.931Z,62.54
2019-03-19T03:58:42.027Z,62.30
2019-03-19T04:02:46.252Z,62.28
2019-03-19T04:06:50.503Z,62.30
2019-03-19T04:10:55.698Z,62.47
2019-03-19T04:14:59.940Z,62.78
2019-03-19T04:19:04.186Z,62.55
2019-03-19T04:23:08.403Z,62.80
2019-03-19T04:27:16.291Z,62.81
2019-03-19T04:31:18.590Z,62.72
2019-03-19T04:35:22.834Z,62.51
2019-03-19T04:39:27.407Z,62.59
2019-03-19T04:43:31.678Z,62.73
2019-03-19T04:47:36.424Z,62.68
2019-03-19T04:51:40.944Z,62.95
2019-03-19T04:55:45.947Z,62.76
2019-03-19T04:59:50.169Z,63.02
2019-03-19T05:03:54.344Z,62.93
2019-03-19T05:07:58.621Z,63.21
2019-03-19T05:12:02.820Z,63.02
2019-03-19T05:16:07.222Z,63.28
2019-03-19T05:20:11.680Z,62.97
2019-03-19T05:24:15.895Z,63.04
2019-03-19T05:28:20.144Z,63.66
2019-03-19T05:32:24.418Z,63.41
2019-03-19T05:36:28.899Z,63.58
2019-03-19T05:40:33.185Z,63.74
2019-03-19T05:44:37.375Z,63.48
2019-03-19T05:48:41.655Z,63.89
2019-03-19T05:52:48.316Z,63.29
2019-03-19T05:56:51.777Z,63.36
2019-03-19T06:00:55.944Z,63.49
2019-03-19T06:05:00.354Z,63.59
2019-03-19T06:09:06.679Z,63.27
2019-03-19T06:13:10.914Z,63.25
2019-03-19T06:17:15.128Z,63.33
2019-03-19T06:21:19.415Z,63.18
2019-03-19T06:25:23.594Z,63.19
2019-03-19T06:29:27.806Z,63.07
2019-03-19T06:33:32.038Z,63.12
2019-03-19T06:37:36.261Z,62.96
2019-03-19T06:41:40.555Z,62.82
2019-03-19T06:45:44.798Z,62.84
2019-03-19T06:49:49.371Z,62.74
2019-03-19T06:53:53.566Z,62.52
2019-03-19T06:57:57.811Z,62.41
2019-03-19T07:02:02.388Z,62.57
2019-03-19T07:06:06.591Z,62.51
2019-03-19T07:10:11.521Z,62.26
2019-03-19T07:14:15.718Z,62.10
2019-03-19T07:18:19.986Z,62.22
2019-03-19T07:22:24.211Z,62.10
2019-03-19T07:26:28.774Z,61.76
2019-03-19T07:30:32.986Z,61.62
2019-03-19T07:34:37.205Z,61.70
2019-03-19T07:38:41.425Z,61.73
2019-03-19T07:42:45.735Z,61.54
2019-03-19T07:46:49.952Z,61.15
2019-03-19T07:50:54.170Z,61.06
2019-03-19T07:54:58.395Z,60.85
2019-03-19T07:59:02.633Z,60.76
2019-03-19T08:03:15.690Z,60.97
2019-03-19T08:07:12.872Z,60.90
2019-03-19T08:11:17.130Z,60.72
2019-03-19T08:15:21.310Z,60.57
2019-03-19T08:19:25.538Z,61.23
2019-03-19T08:23:30.005Z,60.57
2019-03-19T08:27:34.216Z,60.38
2019-03-19T08:31:38.461Z,60.12
2019-03-19T08:35:42.656Z,59.90
2019-03-19T08:39:46.842Z,59.67
2019-03-19T08:43:52.668Z,59.83
2019-03-19T08:47:56.996Z,59.20
2019-03-19T08:52:01.265Z,59.23
2019-03-19T08:56:05.510Z,59.32
2019-03-19T09:00:12.962Z,59.08
2019-03-19T09:04:17.140Z,58.87
2019-03-19T09:08:21.647Z,58.82
2019-03-19T09:12:25.828Z,57.74
2019-03-19T09:16:30.043Z,58.44
2019-03-19T09:20:34.411Z,58.20
2019-03-19T09:24:38.585Z,58.18
2019-03-19T09:28:42.829Z,58.75
2019-03-19T09:32:47.006Z,58.42
2019-03-19T09:36:57.197Z,58.17
2019-03-19T09:40:57.488Z,58.29
2019-03-19T09:45:01.708Z,57.69
2019-03-19T09:49:05.953Z,57.12
2019-03-19T09:53:10.167Z,57.84
2019-03-19T09:57:14.384Z,56.56
2019-03-19T10:01:18.592Z,56.92
2019-03-19T10:05:22.834Z,54.82
2019-03-19T10:09:27.009Z,54.63
2019-03-19T10:13:31.583Z,55.30
2019-03-19T10:17:35.764Z,56.14
2019-03-19T10:21:39.994Z,56.79
2019-03-19T10:25:44.242Z,55.41
2019-03-19T10:29:48.476Z,54.86
2019-03-19T10:33:52.642Z,55.57
2019-03-19T10:37:56.932Z,55.41
2019-03-19T10:42:01.462Z,55.18
2019-03-19T10:46:05.688Z,56.41
2019-03-19T10:50:13.796Z,54.96
2019-03-19T10:54:18.032Z,54.71
2019-03-19T10:58:22.260Z,54.02
2019-03-19T11:02:26.490Z,54.00
2019-03-19T11:06:30.707Z,53.97
2019-03-19T11:10:34.930Z,53.40
2019-03-19T11:14:39.160Z,54.15
2019-03-19T11:18:43.390Z,53.62
2019-03-19T11:22:47.710Z,52.60
2019-03-19T11:26:52.305Z,53.99
2019-03-19T11:30:56.634Z,53.66
2019-03-19T11:35:00.981Z,53.30
2019-03-19T11:39:08.285Z,52.97
2019-03-19T11:43:12.591Z,53.26
2019-03-19T11:47:16.799Z,53.39
2019-03-19T11:51:21.001Z,51.51
2019-03-19T11:55:25.265Z,51.15
2019-03-19T11:59:29.497Z,51.42
2019-03-19T12:03:33.729Z,51.87
2019-03-19T12:07:37.989Z,51.17
2019-03-19T12:11:42.215Z,50.66
2019-03-19T12:15:46.443Z,49.71
2019-03-19T12:19:50.677Z,49.59
2019-03-19T12:23:54.949Z,49.96
2019-03-19T12:27:59.127Z,47.72
2019-03-19T12:32:03.326Z,47.96
2019-03-19T12:36:07.882Z,48.97
2019-03-19T12:40:13.354Z,48.53
2019-03-19T12:44:17.623Z,49.43
2019-03-19T12:48:21.847Z,48.69
2019-03-19T12:52:26.069Z,48.10
2019-03-19T12:56:30.293Z,47.02
2019-03-19T13:00:35.149Z,47.15
2019-03-19T13:04:39.407Z,46.13
2019-03-19T13:08:43.939Z,45.12
2019-03-19T13:12:48.180Z,45.24
2019-03-19T13:16:52.423Z,45.27
2019-03-19T13:20:56.663Z,45.65
2019-03-19T13:25:01.727Z,43.33
2019-03-19T13:29:05.938Z,42.62
2019-03-19T13:33:10.315Z,43.19
2019-03-19T13:37:14.548Z,44.97
2019-03-19T13:41:18.781Z,44.82
2019-03-19T13:45:23.618Z,45.62
2019-03-19T13:49:28.239Z,44.57
2019-03-19T13:53:32.523Z,44.47
2019-03-19T13:57:36.749Z,45.22
2019-03-19T14:01:40.935Z,44.95
2019-03-19T14:05:45.242Z,43.75
2019-03-19T14:09:49.902Z,44.79
2019-03-19T14:13:55.795Z,45.19
2019-03-19T14:18:00.173Z,43.63
2019-03-19T14:22:04.403Z,43.92
2019-03-19T14:26:08.603Z,42.96
2019-03-19T14:30:15.186Z,44.51
2019-03-19T14:34:19.392Z,42.33
2019-03-19T14:38:23.615Z,43.32
2019-03-19T14:42:27.916Z,42.75
2019-03-19T14:46:32.208Z,43.68
2019-03-19T14:50:36.502Z,43.21
2019-03-19T14:54:40.822Z,43.92
2019-03-19T14:58:45.462Z,43.34
2019-03-19T15:02:49.767Z,42.91
2019-03-19T15:06:53.987Z,43.88
2019-03-19T15:10:58.235Z,43.91
2019-03-19T15:15:02.443Z,43.56
2019-03-19T15:19:06.780Z,43.27
2019-03-19T15:23:11.159Z,42.54
2019-03-19T15:27:15.402Z,42.20
2019-03-19T15:31:29.386Z,42.94
2019-03-19T15:35:26.163Z,44.06
2019-03-19T15:39:30.448Z,44.24
2019-03-19T15:43:34.765Z,44.57
2019-03-19T15:47:39.136Z,44.58
2019-03-19T15:51:43.406Z,44.20
2019-03-19T15:55:47.878Z,44.84
2019-03-19T15:59:52.065Z,43.35
2019-03-19T16:03:56.332Z,43.83
2019-03-19T16:08:01.968Z,43.81
2019-03-19T16:12:06.362Z,43.04
2019-03-19T16:16:10.643Z,44.12
2019-03-19T16:20:15.221Z,44.69
2019-03-19T16:24:19.531Z,43.93
2019-03-19T16:28:23.986Z,44.95
2019-03-19T16:32:28.401Z,43.28
2019-03-19T16:36:33.749Z,43.40
2019-03-19T16:40:37.975Z,44.87
2019-03-19T16:44:42.224Z,45.29
2019-03-19T16:48:46.441Z,45.10
2019-03-19T16:52:50.849Z,45.48
2019-03-19T16:56:55.071Z,45.22
2019-03-19T17:00:59.285Z,45.40
2019-03-19T17:05:04.160Z,45.63
2019-03-19T17:09:08.852Z,45.30
2019-03-19T17:13:13.208Z,45.25
2019-03-19T17:17:17.992Z,45.87
2019-03-19T17:21:23.090Z,45.92
2019-03-19T17:25:28.108Z,45.93
2019-03-19T17:29:32.439Z,46.18
2019-03-19T17:33:36.720Z,45.23
2019-03-19T17:37:40.950Z,46.00
2019-03-19T17:41:45.250Z,45.76
2019-03-19T17:45:49.525Z,46.52
2019-03-19T17:49:54.001Z,46.65
2019-03-19T17:53:58.221Z,46.41
2019-03-19T17:58:03.925Z,46.27
2019-03-19T18:02:08.156Z,46.25
2019-03-19T18:06:12.498Z,45.66
2019-03-19T18:10:16.880Z,45.88
2019-03-19T18:14:21.235Z,45.74
2019-03-19T18:18:25.998Z,46.12
2019-03-19T18:22:30.334Z,45.87
2019-03-19T18:26:35.669Z,45.89
2019-03-19T18:30:42.277Z,45.90
2019-03-19T18:34:46.652Z,45.24
2019-03-19T18:38:50.902Z,45.49
2019-03-19T18:42:55.129Z,45.35
2019-03-19T18:47:00.637Z,45.68
2019-03-19T18:51:05.662Z,45.42
2019-03-19T18:55:59.282Z,45.16
2019-03-19T19:00:05.413Z,45.41
2019-03-19T19:04:10.641Z,45.48
2019-03-19T19:08:15.372Z,45.60
2019-03-19T19:12:19.663Z,45.83
2019-03-19T19:16:24.044Z,45.69
2019-03-19T19:20:28.692Z,45.81
2019-03-19T19:24:32.934Z,46.07
2019-03-19T19:28:37.480Z,46.21
2019-03-19T19:32:41.886Z,45.98
2019-03-19T19:36:47.486Z,46.04
2019-03-19T19:40:51.670Z,46.30
2019-03-19T19:44:55.983Z,46.94
2019-03-19T19:49:00.345Z,46.53
2019-03-19T19:53:05.356Z,47.46
2019-03-19T19:57:09.850Z,47.26
2019-03-19T20:01:14.135Z,47.09
2019-03-19T20:05:18.898Z,47.19
2019-03-19T20:09:24.076Z,47.32
2019-03-19T20:13:28.465Z,47.26
2019-03-19T20:17:32.690Z,47.15
2019-03-19T20:21:36.875Z,47.06
2019-03-19T20:25:41.217Z,47.49
2019-03-19T20:29:45.473Z,47.19
2019-03-19T20:33:49.743Z,47.41
2019-03-19T20:37:54.020Z,47.54
2019-03-19T20:41:59.976Z,47.57
2019-03-19T20:46:04.904Z,47.29
2019-03-19T20:50:13.548Z,47.53
2019-03-19T20:54:17.805Z,47.63
2019-03-19T20:58:23.415Z,47.74
2019-03-19T21:02:27.699Z,47.78
2019-03-19T21:06:31.956Z,47.86
2019-03-19T21:10:37.858Z,47.80
2019-03-19T21:14:42.108Z,47.88
2019-03-19T21:18:46.496Z,47.97
2019-03-19T21:22:50.735Z,48.03
2019-03-19T21:26:57.957Z,48.08
2019-03-19T21:31:02.180Z,48.05
2019-03-19T21:35:06.494Z,48.06
2019-03-19T21:39:11.139Z,47.91
2019-03-19T21:43:15.424Z,48.09
2019-03-19T21:47:19.642Z,47.99
2019-03-19T21:51:23.935Z,48.19
2019-03-19T21:55:28.175Z,48.36
2019-03-19T21:59:32.731Z,48.47
2019-03-19T22:03:36.945Z,48.70
2019-03-19T22:07:41.230Z,48.78
2019-03-19T22:11:45.453Z,48.75
2019-03-19T22:15:49.751Z,49.03
2019-03-19T22:19:54.318Z,49.15
2019-03-19T22:23:58.503Z,49.35
2019-03-19T22:28:02.719Z,49.47
2019-03-19T22:32:06.948Z,49.62
2019-03-19T22:36:11.990Z,49.79
2019-03-19T22:40:16.357Z,49.82
2019-03-19T22:44:20.920Z,49.83
2019-03-19T22:48:25.164Z,49.81
2019-03-19T22:52:29.524Z,49.75
2019-03-19T22:56:33.748Z,49.86
2019-03-19T23:00:49.140Z,50.12
2019-03-19T23:04:53.352Z,50.30
2019-03-19T23:08:57.882Z,50.34
2019-03-19T23:13:02.125Z,50.48
2019-03-19T23:17:06.615Z,50.58
2019-03-19T23:21:10.822Z,50.77
2019-03-19T23:25:15.202Z,51.24
2019-03-19T23:29:19.488Z,51.61
2019-03-19T23:33:23.697Z,51.46
2019-03-19T23:37:27.859Z,51.78
2019-03-19T23:41:32.096Z,51.72
2019-03-19T23:45:36.273Z,52.11
2019-03-19T23:49:40.485Z,51.93
2019-03-19T23:53:45.047Z,52.08
2019-03-19T23:57:49.250Z,52.46
